sensor_id;sensor_type;location;lat;lon;timestamp;noise_LAeq;noise_LA_min;noise_LA_max;noise_LA01;noise_LA95
52872;Laerm;40124;52.198;9.902;2023-05-18T00:00:40;59.24;39.58;80.43;;
52872;Laerm;40124;52.198;9.902;2023-05-18T00:03:08;62.81;39.08;82.93;;
52872;Laerm;40124;52.198;9.902;2023-05-18T00:05:34;53.52;38.52;74.78;;
52872;Laerm;40124;52.198;9.902;2023-05-18T00:07:59;42.03;39.21;48.23;;
52872;Laerm;40124;52.198;9.902;2023-05-18T00:10:25;45.51;40.89;54.68;;
52872;Laerm;40124;52.198;9.902;2023-05-18T00:12:50;42.15;39.58;53.47;;
52872;Laerm;40124;52.198;9.902;2023-05-18T00:15:15;59.44;38.67;77.37;;
52872;Laerm;40124;52.198;9.902;2023-05-18T00:17:40;42.47;39.81;45.23;;
52872;Laerm;40124;52.198;9.902;2023-05-18T00:20:06;63.90;39.70;83.34;;
52872;Laerm;40124;52.198;9.902;2023-05-18T00:22:32;42.54;40.03;49.15;;
52872;Laerm;40124;52.198;9.902;2023-05-18T00:24:57;42.41;39.08;46.13;;
52872;Laerm;40124;52.198;9.902;2023-05-18T00:27:22;42.84;38.95;62.56;;
52872;Laerm;40124;52.198;9.902;2023-05-18T00:29:47;42.25;39.46;44.15;;
52872;Laerm;40124;52.198;9.902;2023-05-18T00:32:13;61.72;39.34;77.91;;
52872;Laerm;40124;52.198;9.902;2023-05-18T00:34:38;54.90;39.99;74.35;;
52872;Laerm;40124;52.198;9.902;2023-05-18T00:37:03;42.50;39.81;44.87;;
52872;Laerm;40124;52.198;9.902;2023-05-18T00:39:28;55.96;38.67;75.03;;
52872;Laerm;40124;52.198;9.902;2023-05-18T00:41:53;41.50;38.95;43.49;;
52872;Laerm;40124;52.198;9.902;2023-05-18T00:44:18;42.33;39.08;47.44;;
52872;Laerm;40124;52.198;9.902;2023-05-18T00:46:44;43.00;38.81;47.18;;
52872;Laerm;40124;52.198;9.902;2023-05-18T00:49:09;63.23;39.08;86.96;;
52872;Laerm;40124;52.198;9.902;2023-05-18T00:51:35;53.51;38.52;71.88;;
52872;Laerm;40124;52.198;9.902;2023-05-18T00:54:00;41.70;38.81;44.11;;
52872;Laerm;40124;52.198;9.902;2023-05-18T00:56:26;46.20;38.95;56.87;;
52872;Laerm;40124;52.198;9.902;2023-05-18T00:58:52;60.03;39.81;81.56;;
52872;Laerm;40124;52.198;9.902;2023-05-18T01:01:28;57.00;40.62;75.20;;
52872;Laerm;40124;52.198;9.902;2023-05-18T01:03:53;42.59;40.43;47.50;;
52872;Laerm;40124;52.198;9.902;2023-05-18T01:06:20;57.98;39.34;78.20;;
52872;Laerm;40124;52.198;9.902;2023-05-18T01:08:46;42.84;40.23;44.69;;
52872;Laerm;40124;52.198;9.902;2023-05-18T01:11:18;58.97;40.43;78.45;;
52872;Laerm;40124;52.198;9.902;2023-05-18T01:14:00;43.18;40.03;51.77;;
52872;Laerm;40124;52.198;9.902;2023-05-18T01:16:29;59.57;40.80;81.22;;
52872;Laerm;40124;52.198;9.902;2023-05-18T01:19:01;56.77;40.36;75.05;;
52872;Laerm;40124;52.198;9.902;2023-05-18T01:21:43;63.52;40.13;85.34;;
52872;Laerm;40124;52.198;9.902;2023-05-18T01:24:29;56.59;40.98;77.20;;
52872;Laerm;40124;52.198;9.902;2023-05-18T01:26:55;42.89;40.43;45.91;;
52872;Laerm;40124;52.198;9.902;2023-05-18T01:29:24;57.82;40.33;77.73;;
52872;Laerm;40124;52.198;9.902;2023-05-18T01:31:51;42.34;39.58;45.99;;
52872;Laerm;40124;52.198;9.902;2023-05-18T01:34:16;42.36;38.81;49.03;;
52872;Laerm;40124;52.198;9.902;2023-05-18T01:36:41;42.11;38.95;47.06;;
52872;Laerm;40124;52.198;9.902;2023-05-18T01:39:06;42.04;38.95;44.27;;
52872;Laerm;40124;52.198;9.902;2023-05-18T01:41:34;42.43;38.81;46.29;;
52872;Laerm;40124;52.198;9.902;2023-05-18T01:44:03;58.19;40.03;78.50;;
52872;Laerm;40124;52.198;9.902;2023-05-18T01:46:44;42.87;40.03;45.94;;
52872;Laerm;40124;52.198;9.902;2023-05-18T01:49:22;41.63;38.52;49.96;;
52872;Laerm;40124;52.198;9.902;2023-05-18T01:51:50;56.41;38.67;76.93;;
52872;Laerm;40124;52.198;9.902;2023-05-18T01:54:18;41.86;38.52;45.33;;
52872;Laerm;40124;52.198;9.902;2023-05-18T01:56:44;42.20;38.37;49.70;;
52872;Laerm;40124;52.198;9.902;2023-05-18T01:59:11;43.15;39.58;52.40;;
52872;Laerm;40124;52.198;9.902;2023-05-18T02:01:36;42.19;37.88;49.88;;
52872;Laerm;40124;52.198;9.902;2023-05-18T02:04:01;59.31;40.53;79.40;;
52872;Laerm;40124;52.198;9.902;2023-05-18T02:06:31;43.09;39.92;45.23;;
52872;Laerm;40124;52.198;9.902;2023-05-18T02:08:57;42.92;40.03;48.71;;
52872;Laerm;40124;52.198;9.902;2023-05-18T02:11:22;43.14;40.71;48.08;;
52872;Laerm;40124;52.198;9.902;2023-05-18T02:13:47;42.17;39.08;49.45;;
52872;Laerm;40124;52.198;9.902;2023-05-18T02:16:12;43.97;40.79;48.98;;
52872;Laerm;40124;52.198;9.902;2023-05-18T02:18:38;56.42;40.62;75.98;;
52872;Laerm;40124;52.198;9.902;2023-05-18T02:21:03;47.64;40.53;56.57;;
52872;Laerm;40124;52.198;9.902;2023-05-18T02:23:29;58.09;39.70;77.57;;
52872;Laerm;40124;52.198;9.902;2023-05-18T02:25:54;64.21;38.67;86.76;;
52872;Laerm;40124;52.198;9.902;2023-05-18T02:28:19;43.95;38.67;57.73;;
52872;Laerm;40124;52.198;9.902;2023-05-18T02:30:45;47.42;39.21;59.37;;
52872;Laerm;40124;52.198;9.902;2023-05-18T02:33:10;58.21;38.81;79.02;;
52872;Laerm;40124;52.198;9.902;2023-05-18T02:35:35;45.00;40.23;55.79;;
52872;Laerm;40124;52.198;9.902;2023-05-18T02:38:00;57.45;40.33;76.03;;
52872;Laerm;40124;52.198;9.902;2023-05-18T02:40:26;46.22;40.03;56.77;;
52872;Laerm;40124;52.198;9.902;2023-05-18T02:42:51;55.87;40.53;74.64;;
52872;Laerm;40124;52.198;9.902;2023-05-18T02:45:17;45.57;39.46;56.49;;
52872;Laerm;40124;52.198;9.902;2023-05-18T02:47:44;45.18;40.03;55.87;;
52872;Laerm;40124;52.198;9.902;2023-05-18T02:50:10;57.87;40.89;77.97;;
52872;Laerm;40124;52.198;9.902;2023-05-18T02:52:35;46.46;40.23;57.21;;
52872;Laerm;40124;52.198;9.902;2023-05-18T02:55:00;57.51;39.46;76.97;;
52872;Laerm;40124;52.198;9.902;2023-05-18T02:57:25;54.95;41.06;73.76;;
52872;Laerm;40124;52.198;9.902;2023-05-18T02:59:51;46.05;40.71;56.21;;
52872;Laerm;40124;52.198;9.902;2023-05-18T03:02:16;45.40;38.95;57.78;;
52872;Laerm;40124;52.198;9.902;2023-05-18T03:04:41;57.39;41.30;76.76;;
52872;Laerm;40124;52.198;9.902;2023-05-18T03:07:07;58.51;41.14;78.49;;
52872;Laerm;40124;52.198;9.902;2023-05-18T03:09:32;61.46;41.46;79.92;;
52872;Laerm;40124;52.198;9.902;2023-05-18T03:11:57;44.03;41.06;52.89;;
52872;Laerm;40124;52.198;9.902;2023-05-18T03:14:22;64.21;41.30;83.28;;
52872;Laerm;40124;52.198;9.902;2023-05-18T03:16:47;61.96;41.22;80.17;;
52872;Laerm;40124;52.198;9.902;2023-05-18T03:19:17;65.65;39.70;81.72;;
52872;Laerm;40124;52.198;9.902;2023-05-18T03:21:43;59.58;41.53;77.43;;
52872;Laerm;40124;52.198;9.902;2023-05-18T03:24:08;59.98;41.46;77.93;;
52872;Laerm;40124;52.198;9.902;2023-05-18T03:26:33;59.92;41.22;80.74;;
52872;Laerm;40124;52.198;9.902;2023-05-18T03:28:58;61.91;41.75;81.98;;
52872;Laerm;40124;52.198;9.902;2023-05-18T03:31:25;63.48;41.68;80.75;;
52872;Laerm;40124;52.198;9.902;2023-05-18T03:33:50;48.34;40.62;60.37;;
52872;Laerm;40124;52.198;9.902;2023-05-18T03:36:15;61.66;40.98;80.60;;
52872;Laerm;40124;52.198;9.902;2023-05-18T03:38:40;62.98;40.33;81.67;;
52872;Laerm;40124;52.198;9.902;2023-05-18T03:41:09;61.25;39.92;78.12;;
52872;Laerm;40124;52.198;9.902;2023-05-18T03:43:37;57.94;39.34;79.12;;
52872;Laerm;40124;52.198;9.902;2023-05-18T03:46:02;65.80;40.03;84.95;;
52872;Laerm;40124;52.198;9.902;2023-05-18T03:48:28;59.51;40.03;77.76;;
52872;Laerm;40124;52.198;9.902;2023-05-18T03:50:53;62.52;41.61;81.50;;
52872;Laerm;40124;52.198;9.902;2023-05-18T03:53:18;66.12;41.89;82.37;;
52872;Laerm;40124;52.198;9.902;2023-05-18T03:55:45;56.43;40.43;75.64;;
52872;Laerm;40124;52.198;9.902;2023-05-18T03:58:10;60.28;40.03;79.16;;
52872;Laerm;40124;52.198;9.902;2023-05-18T04:00:35;69.11;41.22;88.36;;
52872;Laerm;40124;52.198;9.902;2023-05-18T04:03:01;65.29;41.06;80.79;;
52872;Laerm;40124;52.198;9.902;2023-05-18T04:05:27;63.20;41.38;80.23;;
52872;Laerm;40124;52.198;9.902;2023-05-18T04:07:52;61.18;41.53;78.10;;
52872;Laerm;40124;52.198;9.902;2023-05-18T04:10:17;59.32;40.98;79.95;;
52872;Laerm;40124;52.198;9.902;2023-05-18T04:12:43;63.31;41.38;79.41;;
52872;Laerm;40124;52.198;9.902;2023-05-18T04:15:08;63.65;41.22;81.43;;
52872;Laerm;40124;52.198;9.902;2023-05-18T04:17:34;62.97;41.53;80.52;;
52872;Laerm;40124;52.198;9.902;2023-05-18T04:19:59;58.99;40.71;78.17;;
52872;Laerm;40124;52.198;9.902;2023-05-18T04:22:25;62.56;41.53;83.39;;
52872;Laerm;40124;52.198;9.902;2023-05-18T04:24:55;60.84;41.75;80.89;;
52872;Laerm;40124;52.198;9.902;2023-05-18T04:27:21;62.50;41.46;81.91;;
52872;Laerm;40124;52.198;9.902;2023-05-18T04:29:46;49.96;42.22;66.63;;
52872;Laerm;40124;52.198;9.902;2023-05-18T04:32:13;52.05;42.88;58.91;;
52872;Laerm;40124;52.198;9.902;2023-05-18T04:34:38;59.32;47.79;79.86;;
52872;Laerm;40124;52.198;9.902;2023-05-18T04:37:03;61.24;40.89;80.22;;
52872;Laerm;40124;52.198;9.902;2023-05-18T04:39:31;63.37;41.46;82.45;;
52872;Laerm;40124;52.198;9.902;2023-05-18T04:41:58;58.67;41.53;78.55;;
52872;Laerm;40124;52.198;9.902;2023-05-18T04:44:24;64.31;41.46;80.30;;
52872;Laerm;40124;52.198;9.902;2023-05-18T04:46:49;44.82;41.53;56.81;;
52872;Laerm;40124;52.198;9.902;2023-05-18T04:49:16;67.09;42.59;85.91;;
52872;Laerm;40124;52.198;9.902;2023-05-18T04:51:41;61.66;42.47;82.23;;
52872;Laerm;40124;52.198;9.902;2023-05-18T04:54:07;63.55;41.75;81.90;;
52872;Laerm;40124;52.198;9.902;2023-05-18T04:56:33;65.64;42.47;81.19;;
52872;Laerm;40124;52.198;9.902;2023-05-18T04:58:58;63.37;41.96;80.89;;
52872;Laerm;40124;52.198;9.902;2023-05-18T05:01:23;59.65;42.22;80.38;;
52872;Laerm;40124;52.198;9.902;2023-05-18T05:03:49;63.18;42.53;79.67;;
52872;Laerm;40124;52.198;9.902;2023-05-18T05:06:14;65.67;42.03;82.69;;
52872;Laerm;40124;52.198;9.902;2023-05-18T05:08:39;65.95;41.68;80.76;;
52872;Laerm;40124;52.198;9.902;2023-05-18T05:11:05;63.93;41.68;82.25;;
52872;Laerm;40124;52.198;9.902;2023-05-18T05:13:30;63.03;42.53;81.23;;
52872;Laerm;40124;52.198;9.902;2023-05-18T05:15:55;57.73;41.30;78.86;;
52872;Laerm;40124;52.198;9.902;2023-05-18T05:18:20;66.49;42.53;82.87;;
52872;Laerm;40124;52.198;9.902;2023-05-18T05:20:45;44.53;41.75;56.99;;
52872;Laerm;40124;52.198;9.902;2023-05-18T05:23:11;66.76;41.06;86.22;;
52872;Laerm;40124;52.198;9.902;2023-05-18T05:25:36;62.60;41.88;78.48;;
52872;Laerm;40124;52.198;9.902;2023-05-18T05:28:01;57.32;42.59;74.33;;
52872;Laerm;40124;52.198;9.902;2023-05-18T05:30:26;68.16;42.98;84.41;;
52872;Laerm;40124;52.198;9.902;2023-05-18T05:32:51;62.70;42.29;80.61;;
52872;Laerm;40124;52.198;9.902;2023-05-18T05:35:17;67.32;41.96;83.52;;
52872;Laerm;40124;52.198;9.902;2023-05-18T05:37:42;65.16;42.53;82.63;;
52872;Laerm;40124;52.198;9.902;2023-05-18T05:40:07;66.39;42.22;81.61;;
52872;Laerm;40124;52.198;9.902;2023-05-18T05:42:33;63.56;42.98;79.21;;
52872;Laerm;40124;52.198;9.902;2023-05-18T05:44:58;64.49;42.82;79.42;;
52872;Laerm;40124;52.198;9.902;2023-05-18T05:47:24;65.51;42.93;79.43;;
52872;Laerm;40124;52.198;9.902;2023-05-18T05:49:49;67.72;42.53;85.32;;
52872;Laerm;40124;52.198;9.902;2023-05-18T05:52:14;63.17;41.38;81.58;;
52872;Laerm;40124;52.198;9.902;2023-05-18T05:54:40;72.37;41.89;88.20;;
52872;Laerm;40124;52.198;9.902;2023-05-18T05:57:05;65.08;42.47;80.66;;
52872;Laerm;40124;52.198;9.902;2023-05-18T05:59:30;62.26;41.61;78.20;;
52872;Laerm;40124;52.198;9.902;2023-05-18T06:01:55;64.92;42.22;78.32;;
52872;Laerm;40124;52.198;9.902;2023-05-18T06:04:20;60.65;41.30;79.04;;
52872;Laerm;40124;52.198;9.902;2023-05-18T06:06:46;65.27;41.46;83.45;;
52872;Laerm;40124;52.198;9.902;2023-05-18T06:09:11;64.15;41.30;81.14;;
52872;Laerm;40124;52.198;9.902;2023-05-18T06:11:37;63.14;42.41;80.13;;
52872;Laerm;40124;52.198;9.902;2023-05-18T06:14:02;66.32;42.59;81.97;;
52872;Laerm;40124;52.198;9.902;2023-05-18T06:16:27;67.94;42.03;82.92;;
52872;Laerm;40124;52.198;9.902;2023-05-18T06:18:52;67.44;43.04;81.15;;
52872;Laerm;40124;52.198;9.902;2023-05-18T06:21:17;67.51;42.93;81.67;;
52872;Laerm;40124;52.198;9.902;2023-05-18T06:23:42;67.33;41.61;80.75;;
52872;Laerm;40124;52.198;9.902;2023-05-18T06:26:08;65.07;42.03;80.25;;
52872;Laerm;40124;52.198;9.902;2023-05-18T06:28:33;67.54;41.75;81.25;;
52872;Laerm;40124;52.198;9.902;2023-05-18T06:30:59;67.10;42.29;82.11;;
52872;Laerm;40124;52.198;9.902;2023-05-18T06:33:24;63.10;41.82;77.23;;
52872;Laerm;40124;52.198;9.902;2023-05-18T06:35:50;72.09;42.09;88.32;;
52872;Laerm;40124;52.198;9.902;2023-05-18T06:38:15;62.24;39.70;78.52;;
52872;Laerm;40124;52.198;9.902;2023-05-18T06:40:41;59.08;39.34;74.21;;
52872;Laerm;40124;52.198;9.902;2023-05-18T06:43:06;65.78;41.30;81.40;;
52872;Laerm;40124;52.198;9.902;2023-05-18T06:45:32;70.21;41.14;84.57;;
52872;Laerm;40124;52.198;9.902;2023-05-18T06:47:57;73.80;41.68;92.28;;
52872;Laerm;40124;52.198;9.902;2023-05-18T06:50:22;66.41;42.93;79.32;;
52872;Laerm;40124;52.198;9.902;2023-05-18T06:52:47;65.59;41.14;80.26;;
52872;Laerm;40124;52.198;9.902;2023-05-18T06:55:12;66.18;40.62;80.19;;
52872;Laerm;40124;52.198;9.902;2023-05-18T06:57:39;68.18;42.03;82.25;;
52872;Laerm;40124;52.198;9.902;2023-05-18T07:00:05;65.89;42.22;80.67;;
52872;Laerm;40124;52.198;9.902;2023-05-18T07:02:31;68.06;43.68;82.37;;
52872;Laerm;40124;52.198;9.902;2023-05-18T07:04:56;62.17;40.33;79.24;;
52872;Laerm;40124;52.198;9.902;2023-05-18T07:07:22;65.06;41.61;79.19;;
52872;Laerm;40124;52.198;9.902;2023-05-18T07:09:47;59.21;40.89;77.25;;
52872;Laerm;40124;52.198;9.902;2023-05-18T07:12:13;67.15;43.09;78.09;;
52872;Laerm;40124;52.198;9.902;2023-05-18T07:14:38;69.10;41.89;83.28;;
52872;Laerm;40124;52.198;9.902;2023-05-18T07:17:03;67.50;40.62;79.72;;
52872;Laerm;40124;52.198;9.902;2023-05-18T07:19:30;68.28;39.70;82.33;;
52872;Laerm;40124;52.198;9.902;2023-05-18T07:21:56;67.67;45.69;80.67;;
52872;Laerm;40124;52.198;9.902;2023-05-18T07:24:23;65.55;43.19;80.84;;
52872;Laerm;40124;52.198;9.902;2023-05-18T07:26:48;69.73;43.94;79.85;;
52872;Laerm;40124;52.198;9.902;2023-05-18T07:29:13;68.20;41.53;82.23;;
52872;Laerm;40124;52.198;9.902;2023-05-18T07:31:38;66.07;41.82;81.03;;
52872;Laerm;40124;52.198;9.902;2023-05-18T07:34:05;66.66;44.35;79.94;;
52872;Laerm;40124;52.198;9.902;2023-05-18T07:36:30;67.23;42.29;82.34;;
52872;Laerm;40124;52.198;9.902;2023-05-18T07:38:55;67.53;39.08;81.21;;
52872;Laerm;40124;52.198;9.902;2023-05-18T07:41:22;70.17;46.82;86.12;;
52872;Laerm;40124;52.198;9.902;2023-05-18T07:43:48;69.90;43.34;83.73;;
52872;Laerm;40124;52.198;9.902;2023-05-18T07:46:13;71.29;45.60;83.19;;
52872;Laerm;40124;52.198;9.902;2023-05-18T07:48:39;69.18;43.94;82.72;;
52872;Laerm;40124;52.198;9.902;2023-05-18T07:51:04;67.52;45.23;80.04;;
52872;Laerm;40124;52.198;9.902;2023-05-18T07:53:29;69.03;44.62;82.55;;
52872;Laerm;40124;52.198;9.902;2023-05-18T07:55:57;73.67;42.65;93.80;;
52872;Laerm;40124;52.198;9.902;2023-05-18T07:58:22;67.86;44.07;85.20;;
52872;Laerm;40124;52.198;9.902;2023-05-18T08:00:47;67.53;44.47;78.83;;
52872;Laerm;40124;52.198;9.902;2023-05-18T08:03:12;69.58;46.38;82.23;;
52872;Laerm;40124;52.198;9.902;2023-05-18T08:05:38;68.75;41.46;81.31;;
52872;Laerm;40124;52.198;9.902;2023-05-18T08:08:03;70.42;43.44;83.47;;
52872;Laerm;40124;52.198;9.902;2023-05-18T08:10:28;73.86;43.04;91.18;;
52872;Laerm;40124;52.198;9.902;2023-05-18T08:12:53;68.56;45.63;79.63;;
52872;Laerm;40124;52.198;9.902;2023-05-18T08:15:18;67.92;40.98;81.11;;
52872;Laerm;40124;52.198;9.902;2023-05-18T08:17:44;69.86;48.20;81.99;;
52872;Laerm;40124;52.198;9.902;2023-05-18T08:20:09;70.22;50.28;82.84;;
52872;Laerm;40124;52.198;9.902;2023-05-18T08:22:34;71.21;45.20;84.06;;
52872;Laerm;40124;52.198;9.902;2023-05-18T08:25:00;66.26;40.33;80.93;;
52872;Laerm;40124;52.198;9.902;2023-05-18T08:27:25;76.67;42.82;96.38;;
52872;Laerm;40124;52.198;9.902;2023-05-18T08:29:50;69.34;45.80;80.77;;
52872;Laerm;40124;52.198;9.902;2023-05-18T08:32:16;68.73;43.68;79.59;;
52872;Laerm;40124;52.198;9.902;2023-05-18T08:34:41;66.85;41.53;80.71;;
52872;Laerm;40124;52.198;9.902;2023-05-18T08:37:06;70.08;45.11;82.82;;
52872;Laerm;40124;52.198;9.902;2023-05-18T08:39:31;67.65;45.17;80.45;;
52872;Laerm;40124;52.198;9.902;2023-05-18T08:42:00;69.07;43.34;82.07;;
52872;Laerm;40124;52.198;9.902;2023-05-18T08:44:29;67.55;43.90;81.04;;
52872;Laerm;40124;52.198;9.902;2023-05-18T08:46:54;70.21;45.83;82.98;;
52872;Laerm;40124;52.198;9.902;2023-05-18T08:49:20;70.45;44.83;84.06;;
52872;Laerm;40124;52.198;9.902;2023-05-18T08:51:46;65.70;42.59;79.80;;
52872;Laerm;40124;52.198;9.902;2023-05-18T08:54:18;69.53;44.87;86.62;;
52872;Laerm;40124;52.198;9.902;2023-05-18T08:56:43;69.24;43.24;83.16;;
52872;Laerm;40124;52.198;9.902;2023-05-18T08:59:10;68.17;43.24;81.88;;
52872;Laerm;40124;52.198;9.902;2023-05-18T09:01:35;66.13;42.47;78.60;;
52872;Laerm;40124;52.198;9.902;2023-05-18T09:04:01;68.25;44.62;81.49;;
52872;Laerm;40124;52.198;9.902;2023-05-18T09:06:26;69.88;44.04;81.37;;
52872;Laerm;40124;52.198;9.902;2023-05-18T09:08:55;69.21;49.10;80.64;;
52872;Laerm;40124;52.198;9.902;2023-05-18T09:11:23;67.07;43.44;80.82;;
52872;Laerm;40124;52.198;9.902;2023-05-18T09:13:49;69.68;43.14;81.63;;
52872;Laerm;40124;52.198;9.902;2023-05-18T09:16:17;68.85;44.83;81.35;;
52872;Laerm;40124;52.198;9.902;2023-05-18T09:18:42;68.90;43.86;80.02;;
52872;Laerm;40124;52.198;9.902;2023-05-18T09:21:07;69.73;46.38;83.63;;
52872;Laerm;40124;52.198;9.902;2023-05-18T09:23:33;67.81;43.29;81.31;;
52872;Laerm;40124;52.198;9.902;2023-05-18T09:25:58;67.48;43.44;82.11;;
52872;Laerm;40124;52.198;9.902;2023-05-18T09:28:45;72.49;45.86;86.43;;
52872;Laerm;40124;52.198;9.902;2023-05-18T09:31:18;70.74;43.94;82.19;;
52872;Laerm;40124;52.198;9.902;2023-05-18T09:33:44;68.12;45.30;84.47;;
52872;Laerm;40124;52.198;9.902;2023-05-18T09:36:10;69.06;44.65;82.38;;
52872;Laerm;40124;52.198;9.902;2023-05-18T09:38:36;70.46;47.08;82.22;;
52872;Laerm;40124;52.198;9.902;2023-05-18T09:41:02;68.37;41.82;81.06;;
52872;Laerm;40124;52.198;9.902;2023-05-18T09:43:27;67.07;43.51;78.60;;
52872;Laerm;40124;52.198;9.902;2023-05-18T09:45:52;68.23;41.89;82.92;;
52872;Laerm;40124;52.198;9.902;2023-05-18T09:48:17;70.46;43.49;86.68;;
52872;Laerm;40124;52.198;9.902;2023-05-18T09:50:43;67.97;44.19;79.85;;
52872;Laerm;40124;52.198;9.902;2023-05-18T09:53:09;69.13;43.89;80.91;;
52872;Laerm;40124;52.198;9.902;2023-05-18T09:55:47;68.09;43.77;79.08;;
52872;Laerm;40124;52.198;9.902;2023-05-18T09:58:13;68.23;42.09;82.86;;
52872;Laerm;40124;52.198;9.902;2023-05-18T10:00:43;74.00;42.98;89.04;;
52872;Laerm;40124;52.198;9.902;2023-05-18T10:03:15;69.20;45.57;83.34;;
52872;Laerm;40124;52.198;9.902;2023-05-18T10:05:40;68.84;42.71;80.19;;
52872;Laerm;40124;52.198;9.902;2023-05-18T10:08:05;66.52;41.53;77.82;;
52872;Laerm;40124;52.198;9.902;2023-05-18T10:10:31;69.48;40.98;81.36;;
52872;Laerm;40124;52.198;9.902;2023-05-18T10:12:56;67.05;41.53;81.21;;
52872;Laerm;40124;52.198;9.902;2023-05-18T10:15:24;69.24;43.37;83.67;;
52872;Laerm;40124;52.198;9.902;2023-05-18T10:17:50;69.52;43.09;83.56;;
52872;Laerm;40124;52.198;9.902;2023-05-18T10:20:19;66.55;43.14;79.84;;
52872;Laerm;40124;52.198;9.902;2023-05-18T10:22:45;66.54;43.09;80.85;;
52872;Laerm;40124;52.198;9.902;2023-05-18T10:25:11;67.51;44.76;79.56;;
52872;Laerm;40124;52.198;9.902;2023-05-18T10:27:38;69.39;44.47;80.78;;
52872;Laerm;40124;52.198;9.902;2023-05-18T10:30:06;66.40;40.71;80.14;;
52872;Laerm;40124;52.198;9.902;2023-05-18T10:32:33;70.36;45.04;83.94;;
52872;Laerm;40124;52.198;9.902;2023-05-18T10:34:59;69.01;42.82;79.52;;
52872;Laerm;40124;52.198;9.902;2023-05-18T10:37:25;65.33;39.58;80.35;;
52872;Laerm;40124;52.198;9.902;2023-05-18T10:39:54;65.49;43.19;80.41;;
52872;Laerm;40124;52.198;9.902;2023-05-18T10:42:19;66.26;40.98;80.70;;
52872;Laerm;40124;52.198;9.902;2023-05-18T10:44:46;66.58;40.98;79.61;;
52872;Laerm;40124;52.198;9.902;2023-05-18T10:47:12;67.48;42.29;79.51;;
52872;Laerm;40124;52.198;9.902;2023-05-18T10:49:38;68.39;43.34;79.21;;
52872;Laerm;40124;52.198;9.902;2023-05-18T10:52:04;66.76;39.92;79.63;;
52872;Laerm;40124;52.198;9.902;2023-05-18T10:54:30;68.14;41.68;80.19;;
52872;Laerm;40124;52.198;9.902;2023-05-18T10:56:55;70.87;42.98;84.56;;
52872;Laerm;40124;52.198;9.902;2023-05-18T10:59:21;69.03;42.53;82.00;;
52872;Laerm;40124;52.198;9.902;2023-05-18T11:01:50;67.11;41.53;81.23;;
52872;Laerm;40124;52.198;9.902;2023-05-18T11:04:23;70.33;45.57;86.93;;
52872;Laerm;40124;52.198;9.902;2023-05-18T11:06:54;71.96;47.84;87.82;;
52872;Laerm;40124;52.198;9.902;2023-05-18T11:09:21;67.18;41.61;79.20;;
52872;Laerm;40124;52.198;9.902;2023-05-18T11:11:50;69.01;40.71;79.98;;
52872;Laerm;40124;52.198;9.902;2023-05-18T11:14:23;65.60;40.03;80.14;;
52872;Laerm;40124;52.198;9.902;2023-05-18T11:16:48;68.67;43.39;81.06;;
52872;Laerm;40124;52.198;9.902;2023-05-18T11:19:13;67.98;41.14;80.68;;
52872;Laerm;40124;52.198;9.902;2023-05-18T11:24:21;66.94;44.39;80.56;;
52872;Laerm;40124;52.198;9.902;2023-05-18T11:32:00;68.21;42.09;80.53;;
52872;Laerm;40124;52.198;9.902;2023-05-18T11:34:39;68.44;42.76;82.95;;
52872;Laerm;40124;52.198;9.902;2023-05-18T11:37:06;69.96;42.76;84.31;;
52872;Laerm;40124;52.198;9.902;2023-05-18T11:39:33;68.35;42.09;79.86;;
52872;Laerm;40124;52.198;9.902;2023-05-18T11:41:59;70.35;42.65;81.03;;
52872;Laerm;40124;52.198;9.902;2023-05-18T11:44:26;67.96;42.29;80.87;;
52872;Laerm;40124;52.198;9.902;2023-05-18T11:49:17;67.25;40.62;80.48;;
52872;Laerm;40124;52.198;9.902;2023-05-18T11:54:28;68.33;43.34;80.98;;
52872;Laerm;40124;52.198;9.902;2023-05-18T11:56:57;67.39;43.44;80.98;;
52872;Laerm;40124;52.198;9.902;2023-05-18T12:01:57;66.19;41.14;78.45;;
52872;Laerm;40124;52.198;9.902;2023-05-18T12:04:23;68.11;41.75;79.73;;
52872;Laerm;40124;52.198;9.902;2023-05-18T12:06:48;66.04;41.82;79.95;;
52872;Laerm;40124;52.198;9.902;2023-05-18T12:09:13;66.85;44.76;77.72;;
52872;Laerm;40124;52.198;9.902;2023-05-18T12:11:39;67.07;41.75;81.19;;
52872;Laerm;40124;52.198;9.902;2023-05-18T12:14:04;68.89;42.35;81.49;;
52872;Laerm;40124;52.198;9.902;2023-05-18T12:16:29;69.00;43.14;79.81;;
52872;Laerm;40124;52.198;9.902;2023-05-18T12:18:55;65.33;41.61;79.32;;
52872;Laerm;40124;52.198;9.902;2023-05-18T12:21:21;68.46;42.35;80.63;;
52872;Laerm;40124;52.198;9.902;2023-05-18T12:23:46;64.82;38.67;80.36;;
52872;Laerm;40124;52.198;9.902;2023-05-18T12:26:11;68.48;39.11;80.64;;
52872;Laerm;40124;52.198;9.902;2023-05-18T12:28:37;70.13;42.47;81.85;;
52872;Laerm;40124;52.198;9.902;2023-05-18T12:31:02;69.60;42.53;81.91;;
52872;Laerm;40124;52.198;9.902;2023-05-18T12:33:32;65.51;41.68;79.81;;
52872;Laerm;40124;52.198;9.902;2023-05-18T12:35:57;67.68;43.34;79.73;;
52872;Laerm;40124;52.198;9.902;2023-05-18T12:38:23;67.10;42.65;82.63;;
52872;Laerm;40124;52.198;9.902;2023-05-18T12:40:50;68.57;43.81;80.94;;
52872;Laerm;40124;52.198;9.902;2023-05-18T12:43:16;65.61;40.53;79.79;;
52872;Laerm;40124;52.198;9.902;2023-05-18T12:45:42;70.61;45.01;85.70;;
52872;Laerm;40124;52.198;9.902;2023-05-18T12:48:09;70.95;42.47;80.95;;
52872;Laerm;40124;52.198;9.902;2023-05-18T12:50:34;67.63;43.39;79.08;;
52872;Laerm;40124;52.198;9.902;2023-05-18T12:53:01;68.19;43.49;81.15;;
52872;Laerm;40124;52.198;9.902;2023-05-18T12:55:26;71.46;43.14;92.55;;
52872;Laerm;40124;52.198;9.902;2023-05-18T12:58:02;68.25;40.03;81.75;;
52872;Laerm;40124;52.198;9.902;2023-05-18T13:00:31;67.70;42.53;81.56;;
52872;Laerm;40124;52.198;9.902;2023-05-18T13:03:07;68.72;43.09;81.64;;
52872;Laerm;40124;52.198;9.902;2023-05-18T13:05:32;65.24;39.70;78.52;;
52872;Laerm;40124;52.198;9.902;2023-05-18T13:07:57;66.89;43.72;80.03;;
52872;Laerm;40124;52.198;9.902;2023-05-18T13:10:22;71.12;46.25;87.85;;
52872;Laerm;40124;52.198;9.902;2023-05-18T13:12:48;67.18;43.49;79.75;;
52872;Laerm;40124;52.198;9.902;2023-05-18T13:15:17;67.10;41.22;82.29;;
52872;Laerm;40124;52.198;9.902;2023-05-18T13:17:59;67.53;40.80;80.69;;
52872;Laerm;40124;52.198;9.902;2023-05-18T13:20:29;68.81;42.98;82.78;;
52872;Laerm;40124;52.198;9.902;2023-05-18T13:22:55;68.12;40.89;79.89;;
52872;Laerm;40124;52.198;9.902;2023-05-18T13:25:23;67.68;41.22;80.65;;
52872;Laerm;40124;52.198;9.902;2023-05-18T13:27:49;66.77;44.15;79.84;;
52872;Laerm;40124;52.198;9.902;2023-05-18T13:30:15;67.46;42.53;82.40;;
52872;Laerm;40124;52.198;9.902;2023-05-18T13:32:40;66.15;41.30;81.29;;
52872;Laerm;40124;52.198;9.902;2023-05-18T13:35:05;67.09;41.75;78.25;;
52872;Laerm;40124;52.198;9.902;2023-05-18T13:37:30;67.55;44.69;82.74;;
52872;Laerm;40124;52.198;9.902;2023-05-18T13:39:55;66.89;42.29;80.86;;
52872;Laerm;40124;52.198;9.902;2023-05-18T13:42:21;62.27;39.08;77.19;;
52872;Laerm;40124;52.198;9.902;2023-05-18T13:44:46;65.72;41.46;79.60;;
52872;Laerm;40124;52.198;9.902;2023-05-18T13:47:11;67.70;41.96;84.11;;
52872;Laerm;40124;52.198;9.902;2023-05-18T13:49:37;69.52;43.54;81.43;;
52872;Laerm;40124;52.198;9.902;2023-05-18T13:52:02;67.93;44.43;79.76;;
52872;Laerm;40124;52.198;9.902;2023-05-18T13:54:27;65.98;42.88;80.75;;